Terminal Aerodrome Forecast
Issued by NWS Omaha/Valley, NE

Home | Current Version | Previous Version | Text Only | Print | Product List | Glossary On
Versions: 1 2 3 4 5 6 7 8 9 10 11 12 13 14 15 16 17 18
000
FTUS43 KOAX 251127
TAFOFK
TAF
KOFK 251127Z 2512/2612 16011KT P6SM VCSH BKN120
     FM251400 16012G21KT P6SM SCT120
     FM260000 17007KT P6SM BKN110
     FM260600 24005KT P6SM OVC100
     FM260800 31004KT P6SM OVC110=

USA.gov is the U.S. government's official web portal to all federal, state and local government web resources and services.